createdAt,value
2023-03-25T00:01:27.498Z,100797.34
2023-03-25T00:03:57.171Z,100795.03
2023-03-25T00:06:26.827Z,100793.69
2023-03-25T00:08:57.355Z,100799.03
2023-03-25T00:11:27.150Z,100801.22
2023-03-25T00:13:56.896Z,100811.63
2023-03-25T00:16:26.570Z,100812.59
2023-03-25T00:18:56.262Z,100821.66
2023-03-25T00:21:26.034Z,100820.31
2023-03-25T00:23:55.698Z,100833.19
2023-03-25T00:26:25.350Z,100843.91
2023-03-25T00:28:54.998Z,100834.38
2023-03-25T00:31:24.630Z,100830.53
2023-03-25T00:34:00.120Z,100827.72
2023-03-25T00:36:29.781Z,100821.50
2023-03-25T00:38:59.466Z,100824.03
2023-03-25T00:41:29.176Z,100830.75
2023-03-25T00:44:00.033Z,100822.72
2023-03-25T00:46:31.548Z,100822.38
2023-03-25T00:49:01.640Z,100814.69
2023-03-25T00:51:32.740Z,100819.19
2023-03-25T00:54:02.448Z,100813.69
2023-03-25T00:56:32.392Z,100815.53
2023-03-25T00:59:02.290Z,100809.16
2023-03-25T01:01:32.057Z,100801.28
2023-03-25T01:04:02.096Z,100797.31
2023-03-25T01:06:36.845Z,100801.78
2023-03-25T01:09:08.121Z,100796.97
2023-03-25T01:11:39.760Z,100800.34
2023-03-25T01:14:11.948Z,100801.97
2023-03-25T01:16:41.804Z,100812.38
2023-03-25T01:19:11.782Z,100804.00
2023-03-25T01:21:42.349Z,100804.34
2023-03-25T01:24:14.126Z,100801.84
2023-03-25T01:26:45.238Z,100798.63
2023-03-25T01:29:15.951Z,100810.22
2023-03-25T01:31:45.802Z,100808.50
2023-03-25T01:34:15.922Z,100808.50
2023-03-25T01:36:48.119Z,100805.84
2023-03-25T01:39:20.185Z,100808.50
2023-03-25T01:41:51.763Z,100803.16
2023-03-25T01:44:24.287Z,100803.31
2023-03-25T01:46:54.735Z,100797.81
2023-03-25T01:49:28.410Z,100791.66
2023-03-25T01:52:00.533Z,100799.00
2023-03-25T01:54:30.203Z,100791.66
2023-03-25T01:56:59.903Z,100795.19
2023-03-25T01:59:30.110Z,100793.50
2023-03-25T02:02:00.570Z,100792.50
2023-03-25T02:04:40.494Z,100794.16
2023-03-25T02:07:10.165Z,100789.50
2023-03-25T02:09:40.354Z,100794.53
2023-03-25T02:12:10.071Z,100796.06
2023-03-25T02:14:40.640Z,100803.09
2023-03-25T02:17:20.693Z,100798.88
2023-03-25T02:19:56.474Z,100804.41
2023-03-25T02:22:27.275Z,100809.94
2023-03-25T02:25:09.029Z,100808.94
2023-03-25T02:27:59.253Z,100808.44
2023-03-25T02:30:40.890Z,100808.94
2023-03-25T02:33:44.055Z,100813.28
2023-03-25T02:36:50.299Z,100802.41
2023-03-25T02:39:43.311Z,100798.03
2023-03-25T02:42:34.167Z,100799.44
2023-03-25T02:45:14.007Z,100799.44
2023-03-25T02:47:49.740Z,100804.81
2023-03-25T02:50:24.297Z,100798.53
2023-03-25T02:52:56.072Z,100794.53
2023-03-25T02:55:27.022Z,100792.72
2023-03-25T02:57:58.705Z,100788.84
2023-03-25T03:00:30.350Z,100784.34
2023-03-25T03:03:02.118Z,100779.00
2023-03-25T03:05:32.773Z,100772.78
2023-03-25T03:08:20.476Z,100768.63
2023-03-25T03:11:10.281Z,100763.41
2023-03-25T03:13:47.958Z,100764.28
2023-03-25T03:16:41.303Z,100754.88
2023-03-25T03:19:16.825Z,100748.34
2023-03-25T03:21:59.117Z,100740.97
2023-03-25T03:24:35.666Z,100741.66
2023-03-25T03:27:16.413Z,100734.09
2023-03-25T03:29:56.183Z,100729.56
2023-03-25T03:32:29.897Z,100729.41
2023-03-25T03:35:24.541Z,100719.03
2023-03-25T03:38:05.432Z,100722.53
2023-03-25T03:40:35.081Z,100715.50
2023-03-25T03:43:10.122Z,100695.06
2023-03-25T03:45:51.666Z,100689.88
2023-03-25T03:48:25.503Z,100685.16
2023-03-25T03:51:09.446Z,100682.16
2023-03-25T03:53:47.391Z,100673.09
2023-03-25T03:56:25.496Z,100668.56
2023-03-25T03:58:56.122Z,100665.88
2023-03-25T04:01:35.334Z,100653.63
2023-03-25T04:04:09.314Z,100652.63
2023-03-25T04:07:02.709Z,100641.91
2023-03-25T04:09:56.424Z,100636.53
2023-03-25T04:12:29.902Z,100627.66
2023-03-25T04:15:01.958Z,100625.66
2023-03-25T04:17:31.751Z,100617.25
2023-03-25T04:20:03.153Z,100617.06
2023-03-25T04:22:32.769Z,100602.16
2023-03-25T04:25:02.597Z,100597.31
2023-03-25T04:27:34.194Z,100589.91
2023-03-25T04:30:04.664Z,100581.03
2023-03-25T04:32:34.319Z,100567.44
2023-03-25T04:35:07.902Z,100574.66
2023-03-25T04:37:38.580Z,100554.84
2023-03-25T04:40:09.826Z,100550.31
2023-03-25T04:42:39.483Z,100549.34
2023-03-25T04:45:09.485Z,100539.59
2023-03-25T04:47:39.299Z,100536.56
2023-03-25T04:50:09.514Z,100530.19
2023-03-25T04:52:39.745Z,100523.34
2023-03-25T04:55:10.142Z,100535.56
2023-03-25T04:57:39.821Z,100529.16
2023-03-25T05:00:10.728Z,100531.84
2023-03-25T05:02:40.448Z,100531.03
2023-03-25T05:05:10.329Z,100540.63
2023-03-25T05:07:39.978Z,100545.13
2023-03-25T05:10:10.888Z,100547.78
2023-03-25T05:12:40.529Z,100552.19
2023-03-25T05:15:11.373Z,100548.47
2023-03-25T05:17:42.002Z,100545.78
2023-03-25T05:20:12.213Z,100537.94
2023-03-25T05:22:42.113Z,100547.78
2023-03-25T05:25:12.615Z,100554.88
2023-03-25T05:27:42.230Z,100555.69
2023-03-25T05:30:12.777Z,100556.72
2023-03-25T05:32:42.677Z,100551.34
2023-03-25T05:35:12.612Z,100546.13
2023-03-25T05:37:42.288Z,100545.13
2023-03-25T05:40:15.281Z,100547.78
2023-03-25T05:42:50.240Z,100551.34
2023-03-25T05:45:19.934Z,100545.97
2023-03-25T05:47:49.780Z,100533.56
2023-03-25T05:50:19.572Z,100527.34
2023-03-25T05:52:51.176Z,100525.34
2023-03-25T05:55:23.140Z,100513.94
2023-03-25T05:57:52.794Z,100518.28
2023-03-25T06:00:26.067Z,100522.81
2023-03-25T06:02:56.336Z,100535.25
2023-03-25T06:05:26.343Z,100530.03
2023-03-25T06:07:57.773Z,100530.88
2023-03-25T06:10:27.396Z,100538.09
2023-03-25T06:12:57.091Z,100554.03
2023-03-25T06:15:34.889Z,100550.47
2023-03-25T06:18:04.596Z,100547.78
2023-03-25T06:20:35.152Z,100537.94
2023-03-25T06:23:04.871Z,100537.06
2023-03-25T06:25:34.517Z,100529.34
2023-03-25T06:28:05.603Z,100529.16
2023-03-25T06:30:35.292Z,100523.16
2023-03-25T06:33:07.538Z,100529.16
2023-03-25T06:35:37.372Z,100522.13
2023-03-25T06:38:07.094Z,100520.47
2023-03-25T06:40:36.757Z,100515.28
2023-03-25T06:43:07.688Z,100511.59
2023-03-25T06:45:37.366Z,100506.22
2023-03-25T06:48:07.292Z,100502.72
2023-03-25T06:50:37.248Z,100491.97
2023-03-25T06:53:07.126Z,100486.78
2023-03-25T06:55:37.003Z,100485.09
2023-03-25T06:58:07.166Z,100486.78
2023-03-25T07:00:36.999Z,100463.47
2023-03-25T07:03:06.857Z,100470.84
2023-03-25T07:05:36.746Z,100469.84
2023-03-25T07:08:06.737Z,100459.09
2023-03-25T07:10:36.386Z,100464.66
2023-03-25T07:13:06.151Z,100457.28
2023-03-25T07:15:35.736Z,100445.69
2023-03-25T07:18:05.483Z,100449.38
2023-03-25T07:20:35.185Z,100459.09
2023-03-25T07:23:04.845Z,100457.28
2023-03-25T07:25:34.499Z,100434.97
2023-03-25T07:28:04.179Z,100439.50
2023-03-25T07:30:33.790Z,100434.81
2023-03-25T07:33:03.570Z,100433.97
2023-03-25T07:35:33.310Z,100431.28
2023-03-25T07:38:02.970Z,100426.09
2023-03-25T07:40:32.709Z,100429.59
2023-03-25T07:43:02.386Z,100430.63
2023-03-25T07:45:43.725Z,100437.66
2023-03-25T07:48:17.808Z,100444.84
2023-03-25T07:50:47.615Z,100444.84
2023-03-25T07:53:17.232Z,100438.50
2023-03-25T07:55:52.904Z,100437.66
2023-03-25T07:58:23.106Z,100442.34
2023-03-25T08:00:52.775Z,100437.81
2023-03-25T08:03:22.828Z,100430.63
2023-03-25T08:05:52.714Z,100424.78
2023-03-25T08:08:22.534Z,100423.78
2023-03-25T08:10:53.887Z,100420.25
2023-03-25T08:13:23.706Z,100426.59
2023-03-25T08:15:53.967Z,100429.47
2023-03-25T08:18:23.773Z,100437.53
2023-03-25T08:20:53.529Z,100438.34
2023-03-25T08:23:24.030Z,100429.84
2023-03-25T08:25:54.921Z,100441.56
2023-03-25T08:28:24.834Z,100434.53
2023-03-25T08:30:57.717Z,100433.88
2023-03-25T08:33:45.478Z,100435.06
2023-03-25T08:36:15.831Z,100442.59
2023-03-25T08:38:45.434Z,100437.41
2023-03-25T08:41:15.568Z,100436.72
2023-03-25T08:43:45.323Z,100429.69
2023-03-25T08:46:15.338Z,100434.41
2023-03-25T08:48:46.306Z,100431.03
2023-03-25T08:51:16.868Z,100423.53
2023-03-25T08:53:46.528Z,100430.91
2023-03-25T08:56:16.378Z,100431.75
2023-03-25T08:58:46.094Z,100441.31
2023-03-25T09:01:15.794Z,100439.78
2023-03-25T09:03:45.499Z,100441.81
2023-03-25T09:06:15.174Z,100441.47
2023-03-25T09:08:44.874Z,100448.50
2023-03-25T09:11:30.178Z,100446.66
2023-03-25T09:14:06.456Z,100450.84
2023-03-25T09:16:36.184Z,100447.31
2023-03-25T09:19:05.936Z,100446.16
2023-03-25T09:21:35.596Z,100441.81
2023-03-25T09:24:05.293Z,100446.47
2023-03-25T09:26:35.987Z,100443.63
2023-03-25T09:29:05.832Z,100440.47
2023-03-25T09:31:35.518Z,100435.09
2023-03-25T09:34:05.226Z,100435.63
2023-03-25T09:36:34.830Z,100443.00
2023-03-25T09:39:04.808Z,100443.31
2023-03-25T09:42:01.567Z,100441.16
2023-03-25T09:44:54.190Z,100452.69
2023-03-25T09:47:23.901Z,100457.22
2023-03-25T09:49:56.471Z,100462.44
2023-03-25T09:52:59.454Z,100453.91
2023-03-25T09:55:30.869Z,100461.13
2023-03-25T09:58:25.312Z,100449.56
2023-03-25T10:00:58.993Z,100452.38
2023-03-25T10:04:03.038Z,100451.41
2023-03-25T10:06:34.652Z,100445.53
2023-03-25T10:09:05.223Z,100450.41
2023-03-25T10:12:09.823Z,100455.44
2023-03-25T10:15:00.827Z,100453.13
2023-03-25T10:17:55.977Z,100455.31
2023-03-25T10:20:39.367Z,100458.50
2023-03-25T10:23:29.368Z,100458.19
2023-03-25T10:26:02.134Z,100469.22
2023-03-25T10:28:35.124Z,100476.75
2023-03-25T10:31:04.722Z,100473.59
2023-03-25T10:33:43.445Z,100475.78
2023-03-25T10:36:19.607Z,100484.66
2023-03-25T10:38:50.559Z,100483.97
2023-03-25T10:41:27.029Z,100484.16
2023-03-25T10:43:57.093Z,100489.53
2023-03-25T10:46:48.354Z,100493.34
2023-03-25T10:49:22.660Z,100502.09
2023-03-25T10:51:56.465Z,100499.72
2023-03-25T10:54:31.517Z,100498.06
2023-03-25T10:57:01.958Z,100506.59
2023-03-25T10:59:44.833Z,100497.03
2023-03-25T11:02:24.073Z,100500.75
2023-03-25T11:04:56.901Z,100497.22
2023-03-25T11:07:49.901Z,100502.25
2023-03-25T11:10:27.357Z,100502.59
2023-03-25T11:12:59.876Z,100499.41
2023-03-25T11:15:39.542Z,100512.16
2023-03-25T11:18:15.469Z,100516.50
2023-03-25T11:21:10.832Z,100512.63
2023-03-25T11:23:50.330Z,100523.84
2023-03-25T11:26:23.040Z,100524.16
2023-03-25T11:29:03.820Z,100537.41
2023-03-25T11:31:37.438Z,100535.22
2023-03-25T11:34:13.383Z,100541.91
2023-03-25T11:37:03.855Z,100558.16
2023-03-25T11:39:41.202Z,100559.81
2023-03-25T11:42:44.353Z,100555.66
2023-03-25T11:45:37.522Z,100565.34
2023-03-25T11:48:20.611Z,100571.88
2023-03-25T11:50:58.143Z,100576.56
2023-03-25T11:53:28.689Z,100576.41
2023-03-25T11:56:06.200Z,100572.88
2023-03-25T11:58:40.056Z,100574.41
2023-03-25T12:01:22.196Z,100565.84
2023-03-25T12:03:52.879Z,100572.72
2023-03-25T12:06:23.885Z,100566.19
2023-03-25T12:09:00.138Z,100571.38
2023-03-25T12:11:31.778Z,100574.38
2023-03-25T12:14:32.378Z,100583.13
2023-03-25T12:17:04.677Z,100576.56
2023-03-25T12:19:47.666Z,100585.63
2023-03-25T12:22:40.774Z,100587.47
2023-03-25T12:25:35.400Z,100592.81
2023-03-25T12:28:15.988Z,100584.94
2023-03-25T12:31:05.744Z,100589.44
2023-03-25T12:33:42.069Z,100598.81
2023-03-25T12:36:32.710Z,100592.31
2023-03-25T12:39:11.523Z,100593.47
2023-03-25T12:41:58.492Z,100599.66
2023-03-25T12:44:46.368Z,100598.81
2023-03-25T12:47:17.803Z,100604.34
2023-03-25T12:50:12.583Z,100610.22
2023-03-25T12:53:09.599Z,100617.56
2023-03-25T12:55:57.275Z,100621.78
2023-03-25T12:58:48.945Z,100630.13
2023-03-25T13:01:37.894Z,100623.63
2023-03-25T13:04:36.158Z,100621.94
2023-03-25T13:07:06.997Z,100619.75
2023-03-25T13:09:44.011Z,100626.97
2023-03-25T13:12:13.555Z,100626.28
2023-03-25T13:14:51.042Z,100623.59
2023-03-25T13:17:27.468Z,100623.09
2023-03-25T13:19:58.837Z,100624.59
2023-03-25T13:22:50.308Z,100621.25
2023-03-25T13:25:28.190Z,100610.06
2023-03-25T13:27:59.464Z,100613.72
2023-03-25T13:30:38.489Z,100606.03
2023-03-25T13:33:22.018Z,100607.53
2023-03-25T13:35:59.640Z,100606.03
2023-03-25T13:38:37.269Z,100596.47
2023-03-25T13:41:16.927Z,100599.50
2023-03-25T13:43:54.894Z,100596.63
2023-03-25T13:46:27.849Z,100593.78
2023-03-25T13:49:16.961Z,100596.81
2023-03-25T13:51:46.658Z,100604.69
2023-03-25T13:54:56.445Z,100596.81
2023-03-25T13:57:28.851Z,100593.13
2023-03-25T14:00:25.190Z,100601.34
2023-03-25T14:03:14.285Z,100601.31
2023-03-25T14:06:00.072Z,100599.81
2023-03-25T14:08:36.895Z,100596.78
2023-03-25T14:11:06.582Z,100590.09
2023-03-25T14:13:39.176Z,100594.78
2023-03-25T14:16:16.838Z,100582.91
2023-03-25T14:19:10.954Z,100586.25
2023-03-25T14:21:41.081Z,100582.91
2023-03-25T14:24:15.039Z,100589.09
2023-03-25T14:26:59.463Z,100587.56
2023-03-25T14:30:06.186Z,100588.59
2023-03-25T14:32:42.413Z,100595.94
2023-03-25T14:35:36.648Z,100588.59
2023-03-25T14:38:09.316Z,100587.78
2023-03-25T14:40:59.050Z,100588.59
2023-03-25T14:43:39.599Z,100581.25
2023-03-25T14:46:15.905Z,100585.91
2023-03-25T14:48:47.652Z,100592.09
2023-03-25T14:51:43.990Z,100575.38
2023-03-25T14:54:32.637Z,100567.66
2023-03-25T14:57:27.194Z,100571.69
2023-03-25T15:00:11.491Z,100565.66
2023-03-25T15:02:41.477Z,100558.47
2023-03-25T15:05:14.370Z,100558.78
2023-03-25T15:08:08.803Z,100562.63
2023-03-25T15:10:45.731Z,100557.13
2023-03-25T15:13:28.795Z,100558.63
2023-03-25T15:16:18.812Z,100552.94
2023-03-25T15:18:51.054Z,100557.28
2023-03-25T15:21:20.826Z,100557.78
2023-03-25T15:24:02.305Z,100552.94
2023-03-25T15:26:40.726Z,100553.59
2023-03-25T15:29:16.398Z,100546.59
2023-03-25T15:31:49.837Z,100549.41
2023-03-25T15:34:28.098Z,100550.56
2023-03-25T15:37:11.358Z,100554.94
2023-03-25T15:40:03.879Z,100550.56
2023-03-25T15:42:48.309Z,100541.69
2023-03-25T15:45:36.156Z,100535.50
2023-03-25T15:48:29.535Z,100535.50
2023-03-25T15:51:20.521Z,100536.34
2023-03-25T15:54:10.184Z,100533.00
2023-03-25T15:56:43.932Z,100533.47
2023-03-25T15:59:31.729Z,100536.34
2023-03-25T16:02:02.448Z,100518.78
2023-03-25T16:04:35.077Z,100524.28
2023-03-25T16:07:04.709Z,100529.16
2023-03-25T16:09:35.098Z,100528.44
2023-03-25T16:12:05.126Z,100534.31
2023-03-25T16:14:36.214Z,100531.97
2023-03-25T16:17:09.097Z,100540.50
2023-03-25T16:19:47.676Z,100537.34
2023-03-25T16:22:28.381Z,100544.72
2023-03-25T16:25:03.617Z,100535.69
2023-03-25T16:27:34.301Z,100540.34
2023-03-25T16:30:04.126Z,100534.97
2023-03-25T16:32:35.263Z,100534.66
2023-03-25T16:35:06.315Z,100537.53
2023-03-25T16:37:36.228Z,100529.31
2023-03-25T16:40:07.726Z,100525.63
2023-03-25T16:42:38.751Z,100522.47
2023-03-25T16:45:10.136Z,100524.13
2023-03-25T16:47:39.954Z,100525.78
2023-03-25T16:50:10.332Z,100517.59
2023-03-25T16:52:39.969Z,100514.94
2023-03-25T16:55:37.388Z,100509.22
2023-03-25T16:58:07.634Z,100518.22
2023-03-25T17:00:47.076Z,100514.22
2023-03-25T17:03:19.217Z,100512.91
2023-03-25T17:06:29.669Z,100514.75
2023-03-25T17:09:00.503Z,100508.22
2023-03-25T17:11:31.597Z,100508.53
2023-03-25T17:14:09.213Z,100507.38
2023-03-25T17:16:39.489Z,100504.84
2023-03-25T17:19:09.511Z,100506.22
2023-03-25T17:21:40.138Z,100505.88
2023-03-25T17:24:25.973Z,100506.72
2023-03-25T17:27:50.420Z,100507.56
2023-03-25T17:30:43.286Z,100497.03
2023-03-25T17:33:15.238Z,100503.88
2023-03-25T17:35:45.582Z,100502.53
2023-03-25T17:38:19.560Z,100492.16
2023-03-25T17:40:49.199Z,100505.06
2023-03-25T17:43:21.944Z,100497.66
2023-03-25T17:45:51.562Z,100498.66
2023-03-25T17:48:21.331Z,100489.00
2023-03-25T17:50:55.065Z,100484.28
2023-03-25T17:53:24.796Z,100480.78
2023-03-25T17:55:54.555Z,100473.25
2023-03-25T17:58:24.620Z,100464.41
2023-03-25T18:00:54.579Z,100461.06
2023-03-25T18:03:25.415Z,100466.56
2023-03-25T18:05:55.628Z,100466.41
2023-03-25T18:08:26.277Z,100470.41
2023-03-25T18:10:56.486Z,100458.69
2023-03-25T18:13:26.553Z,100460.38
2023-03-25T18:15:56.779Z,100460.53
2023-03-25T18:18:28.092Z,100458.72
2023-03-25T18:21:05.353Z,100453.34
2023-03-25T18:23:34.980Z,100457.03
2023-03-25T18:26:06.240Z,100467.56
2023-03-25T18:28:37.439Z,100467.91
2023-03-25T18:31:07.197Z,100460.38
2023-03-25T18:33:36.965Z,100464.06
2023-03-25T18:36:07.459Z,100469.22
2023-03-25T18:38:37.144Z,100461.88
2023-03-25T18:41:07.421Z,100460.53
2023-03-25T18:43:37.018Z,100459.38
2023-03-25T18:46:07.061Z,100449.31
2023-03-25T18:48:37.046Z,100447.84
2023-03-25T18:51:07.061Z,100440.47
2023-03-25T18:53:37.474Z,100449.50
2023-03-25T18:56:08.736Z,100428.09
2023-03-25T18:58:38.643Z,100438.78
2023-03-25T19:01:11.847Z,100440.28
2023-03-25T19:03:41.503Z,100444.16
2023-03-25T19:06:13.290Z,100448.50
2023-03-25T19:08:46.422Z,100463.53
2023-03-25T19:11:21.850Z,100462.69
2023-03-25T19:13:52.808Z,100452.63
2023-03-25T19:16:23.134Z,100470.91
2023-03-25T19:18:52.834Z,100461.22
2023-03-25T19:21:22.565Z,100465.22
2023-03-25T19:23:53.616Z,100462.88
2023-03-25T19:26:23.286Z,100472.03
2023-03-25T19:28:53.247Z,100458.81
2023-03-25T19:31:22.964Z,100466.84
2023-03-25T19:33:53.596Z,100469.00
2023-03-25T19:36:24.696Z,100470.84
2023-03-25T19:39:06.946Z,100474.03
2023-03-25T19:41:43.632Z,100468.16
2023-03-25T19:44:13.260Z,100465.50
2023-03-25T19:46:43.023Z,100468.34
2023-03-25T19:49:12.849Z,100475.03
2023-03-25T19:51:44.604Z,100473.34
2023-03-25T19:54:16.749Z,100467.84
2023-03-25T19:56:46.546Z,100473.88
2023-03-25T19:59:18.831Z,100474.88
2023-03-25T20:01:48.522Z,100469.19
2023-03-25T20:04:18.272Z,100477.38
2023-03-25T20:06:47.957Z,100477.38
2023-03-25T20:09:17.675Z,100480.72
2023-03-25T20:11:47.418Z,100481.38
2023-03-25T20:14:18.215Z,100480.53
2023-03-25T20:16:47.853Z,100481.53
2023-03-25T20:19:17.565Z,100478.03
2023-03-25T20:21:47.274Z,100479.22
2023-03-25T20:24:16.953Z,100480.06
2023-03-25T20:26:46.834Z,100476.38
2023-03-25T20:29:19.145Z,100473.34
2023-03-25T20:31:49.065Z,100477.22
2023-03-25T20:34:18.744Z,100475.53
2023-03-25T20:36:49.720Z,100477.69
2023-03-25T20:39:19.425Z,100486.56
2023-03-25T20:41:49.109Z,100485.06
2023-03-25T20:44:19.140Z,100483.22
2023-03-25T20:46:48.899Z,100487.56
2023-03-25T20:49:21.327Z,100491.91
2023-03-25T20:51:52.505Z,100492.59
2023-03-25T20:54:22.369Z,100488.72
2023-03-25T20:56:53.292Z,100489.41
2023-03-25T20:59:22.941Z,100484.88
2023-03-25T21:01:55.055Z,100488.56
2023-03-25T21:04:24.876Z,100488.56
2023-03-25T21:06:54.843Z,100484.06
2023-03-25T21:09:24.519Z,100491.72
2023-03-25T21:11:54.141Z,100492.22
2023-03-25T21:14:23.728Z,100492.91
2023-03-25T21:16:55.631Z,100498.09
2023-03-25T21:19:25.914Z,100498.59
2023-03-25T21:21:57.061Z,100509.63
2023-03-25T21:24:26.675Z,100500.41
2023-03-25T21:26:56.360Z,100512.28
2023-03-25T21:29:25.979Z,100514.13
2023-03-25T21:31:55.725Z,100513.47
2023-03-25T21:34:26.467Z,100509.97
2023-03-25T21:36:56.080Z,100525.00
2023-03-25T21:39:25.737Z,100524.31
2023-03-25T21:41:55.448Z,100530.53
2023-03-25T21:44:25.094Z,100538.38
2023-03-25T21:46:55.854Z,100540.88
2023-03-25T21:49:25.712Z,100542.06
2023-03-25T21:51:58.553Z,100542.06
2023-03-25T21:54:28.206Z,100547.06
2023-03-25T21:56:57.936Z,100547.06
2023-03-25T21:59:27.665Z,100549.41
2023-03-25T22:01:57.605Z,100555.94
2023-03-25T22:04:27.482Z,100556.06
2023-03-25T22:06:59.888Z,100552.25
2023-03-25T22:09:29.883Z,100555.09
2023-03-25T22:11:59.474Z,100553.38
2023-03-25T22:14:29.154Z,100558.75
2023-03-25T22:16:58.900Z,100561.94
2023-03-25T22:19:28.567Z,100562.75
2023-03-25T22:21:58.176Z,100557.91
2023-03-25T22:24:30.500Z,100553.56
2023-03-25T22:27:00.365Z,100547.53
2023-03-25T22:29:30.069Z,100560.91
2023-03-25T22:31:59.708Z,100560.09
2023-03-25T22:34:30.237Z,100560.22
2023-03-25T22:36:59.890Z,100570.25
2023-03-25T22:39:29.987Z,100568.25
2023-03-25T22:42:00.073Z,100569.25
2023-03-25T22:44:29.915Z,100574.44
2023-03-25T22:46:59.565Z,100573.59
2023-03-25T22:49:29.290Z,100578.63
2023-03-25T22:51:58.994Z,100582.63
2023-03-25T22:54:28.750Z,100587.31
2023-03-25T22:56:58.533Z,100589.50
2023-03-25T22:59:28.199Z,100587.31
2023-03-25T23:01:58.161Z,100590.16
2023-03-25T23:04:27.819Z,100597.38
2023-03-25T23:07:07.126Z,100601.22
2023-03-25T23:09:43.700Z,100605.38
2023-03-25T23:12:13.934Z,100607.88
2023-03-25T23:14:44.629Z,100610.44
2023-03-25T23:17:14.253Z,100598.03
2023-03-25T23:19:44.031Z,100610.44
2023-03-25T23:22:13.619Z,100604.75
2023-03-25T23:24:43.710Z,100603.72
2023-03-25T23:27:13.704Z,100606.88
2023-03-25T23:29:43.386Z,100605.44
2023-03-25T23:32:13.332Z,100614.44
2023-03-25T23:34:43.010Z,100621.16
2023-03-25T23:37:12.801Z,100614.28
2023-03-25T23:39:43.503Z,100616.97
2023-03-25T23:42:35.527Z,100611.63
2023-03-25T23:45:06.084Z,100617.81
2023-03-25T23:47:35.851Z,100616.97
2023-03-25T23:50:05.625Z,100621.97
2023-03-25T23:52:35.632Z,100622.50
2023-03-25T23:55:05.342Z,100624.88
2023-03-25T23:57:35.075Z,100631.06
